Luminous Kobe-2 — JJ3868 — position and weather

sailwx.info

Track history (hours):
 
Tides and Currents Weather Stations Pressure Air Temp Water Temp Dewpoint Dewpoint Depression Visibility Wind Speed Wind Dir Waves Ship Positions

Luminous Kobe-2

Last reported at 2018-Jun-25 19:26 UTC. Time now 2018-Jun-25 19:39 UTC.
Position N 34°41' E 135°11'.

Length 105 m; draft 4.4 m.

Type: Passenger vessel. MMSI: 431000469.

Date/timePositionNaut miles runAvg speedWind from/ knotsBaromVisibWave heightAir tempDewpointWater temp
2018-Jun-25 19:26N 34°41' E 135°11'0 0.0
2018-Jun-25 18:56N 34°41' E 135°11'0 0.0
2018-Jun-25 18:26N 34°41' E 135°11'0 0.0
2018-Jun-25 17:56N 34°41' E 135°11'0 0.0
2018-Jun-25 17:26N 34°41' E 135°11'0 0.0
2018-Jun-25 16:56N 34°41' E 135°11'0 0.0
2018-Jun-25 16:26N 34°41' E 135°11'0 0.0
2018-Jun-25 15:56N 34°41' E 135°11'0 0.0
2018-Jun-25 15:20N 34°41' E 135°11'0 0.0
2018-Jun-25 14:50N 34°41' E 135°11'0 0.0
2018-Jun-25 14:26N 34°41' E 135°11'0 0.0
2018-Jun-25 13:56N 34°41' E 135°11'0 0.0
2018-Jun-25 13:26N 34°41' E 135°11'0 0.0
2018-Jun-25 12:56N 34°41' E 135°11'0 0.0
2018-Jun-25 12:26N 34°41' E 135°11'1 2.9
2018-Jun-25 12:00N 34°40' E 135°11'713.2
2018-Jun-25 11:30N 34°35' E 135°05'611.9
2018-Jun-25 11:00N 34°37' E 134°58'815.4
2018-Jun-25 10:30N 34°37' E 135°08'5 9.8
2018-Jun-25 10:00N 34°41' E 135°11'0 0.0
2018-Jun-25 09:25N 34°41' E 135°11'1 2.8
2018-Jun-25 09:00N 34°40' E 135°11'3 6.7
2018-Jun-25 08:30N 34°38' E 135°08'4 8.4
2018-Jun-25 08:00N 34°41' E 135°11'0 0.0
2018-Jun-25 07:26N 34°41' E 135°11'0 0.0
2018-Jun-25 06:44N 34°41' E 135°11'0 0.0
2018-Jun-25 06:26N 34°41' E 135°11'0 0.0
2018-Jun-25 05:56N 34°41' E 135°11'0 0.0
2018-Jun-25 05:26N 34°41' E 135°11'0 0.0
2018-Jun-25 04:56N 34°41' E 135°11'3 6.2
2018-Jun-25 04:30N 34°38' E 135°11'1 2.8
2018-Jun-25 04:00N 34°37' E 135°11'1 3.0
2018-Jun-25 03:30N 34°38' E 135°12'3 6.7
2018-Jun-25 03:00N 34°41' E 135°11'0 0.0
2018-Jun-25 02:28N 34°41' E 135°11'0 0.0
2018-Jun-25 01:58N 34°41' E 135°11'0 0.0
2018-Jun-25 01:28N 34°41' E 135°11'0 0.0
2018-Jun-25 00:58N 34°41' E 135°11'0 0.0
2018-Jun-25 00:22N 34°41' E 135°11'0 0.0
2018-Jun-24 23:46N 34°41' E 135°11'0 0.0
2018-Jun-24 23:28N 34°41' E 135°11'0 0.0
2018-Jun-24 22:58N 34°41' E 135°11'0 0.0
2018-Jun-24 22:22N 34°41' E 135°11'0 0.0
2018-Jun-24 21:58N 34°41' E 135°11'0 0.0
2018-Jun-24 21:28N 34°41' E 135°11'0 0.0
2018-Jun-24 20:58N 34°41' E 135°11'0 0.0
2018-Jun-24 20:28N 34°41' E 135°11'0 0.0
2018-Jun-24 19:58N 34°41' E 135°11'0 0.0
2018-Jun-24 19:28N 34°41' E 135°11'0 0.0
2018-Jun-24 18:58N 34°41' E 135°11'0 0.0
2018-Jun-24 18:22N 34°41' E 135°11'0 0.0
2018-Jun-24 17:58N 34°41' E 135°11'0 0.0
2018-Jun-24 17:22N 34°41' E 135°11'0 0.0
2018-Jun-24 16:58N 34°41' E 135°11'0 0.0
2018-Jun-24 16:28N 34°41' E 135°11'0 0.0
2018-Jun-24 15:58N 34°41' E 135°11'0 0.0
2018-Jun-24 15:28N 34°41' E 135°11'0 0.0
2018-Jun-24 14:58N 34°41' E 135°11'0 0.0
2018-Jun-24 14:28N 34°41' E 135°11'0 0.0
2018-Jun-24 13:46N 34°41' E 135°11'0 0.0
2018-Jun-24 13:28N 34°41' E 135°11'0 0.0
2018-Jun-24 12:58N 34°41' E 135°11'0 0.0
2018-Jun-24 12:28N 34°41' E 135°11'1 1.9
2018-Jun-24 12:00N 34°40' E 135°11'612.1
2018-Jun-24 11:31N 34°36' E 135°06'612.6
2018-Jun-24 11:01N 34°37' E 134°59'714.2
2018-Jun-24 10:31N 34°37' E 135°08'510.2
2018-Jun-24 10:00N 34°41' E 135°11'0 0.0
2018-Jun-24 09:28N 34°41' E 135°11'0 0.0
2018-Jun-24 08:54N 34°41' E 135°11'3 7.0
2018-Jun-24 08:30N 34°38' E 135°10'3 5.5
2018-Jun-24 08:00N 34°37' E 135°08'5 9.7
2018-Jun-24 07:30N 34°37' E 135°13'4 7.9
2018-Jun-24 07:00N 34°41' E 135°11'0 0.0
2018-Jun-24 06:25N 34°41' E 135°11'0 0.0
2018-Jun-24 05:49N 34°41' E 135°11'0 0.0
2018-Jun-24 05:31N 34°41' E 135°11'0 0.0
2018-Jun-24 04:55N 34°41' E 135°11'2 5.8
2018-Jun-24 04:30N 34°38' E 135°11'3 6.3
2018-Jun-24 04:00N 34°37' E 135°08'5 9.5
2018-Jun-24 03:30N 34°37' E 135°13'4 7.3
2018-Jun-24 02:58N 34°41' E 135°11'0 0.0
2018-Jun-24 02:19N 34°41' E 135°11'0 0.0
2018-Jun-24 01:55N 34°41' E 135°11'0 0.0
2018-Jun-24 01:25N 34°41' E 135°11'0 0.0
2018-Jun-24 00:55N 34°41' E 135°11'0 0.0
2018-Jun-24 00:25N 34°41' E 135°11'0 0.0
2018-Jun-23 23:55N 34°41' E 135°11'0 0.0
2018-Jun-23 23:25N 34°41' E 135°11'0 0.0
2018-Jun-23 22:55N 34°41' E 135°11'0 0.0
2018-Jun-23 22:25N 34°41' E 135°11'0 0.0
2018-Jun-23 21:49N 34°41' E 135°11'0 0.0
2018-Jun-23 21:25N 34°41' E 135°11'0 0.0
2018-Jun-23 20:55N 34°41' E 135°11'0 0.0
2018-Jun-23 20:19N 34°41' E 135°11'0 0.0
2018-Jun-23 19:55N 34°41' E 135°11'0 0.0
2018-Jun-23 19:25N 34°41' E 135°11'0 0.0
2018-Jun-23 18:55N 34°41' E 135°11'0 0.0
2018-Jun-23 18:25N 34°41' E 135°11'0 0.0
2018-Jun-23 17:49N 34°41' E 135°11'0 0.0
2018-Jun-23 17:25N 34°41' E 135°11'0 0.0
2018-Jun-23 16:55N 34°41' E 135°11'0 0.0
2018-Jun-23 16:19N 34°41' E 135°11'0 0.0
2018-Jun-23 15:55N 34°41' E 135°11'0 0.0
2018-Jun-23 15:25N 34°41' E 135°11'0 0.0
2018-Jun-23 14:49N 34°41' E 135°11'0 0.0
2018-Jun-23 14:25N 34°41' E 135°11'0 0.0
2018-Jun-23 13:55N 34°41' E 135°11'0 0.0
2018-Jun-23 13:25N 34°41' E 135°11'0 0.0
2018-Jun-23 12:55N 34°41' E 135°11'0 0.0
2018-Jun-23 12:25N 34°41' E 135°11'1 3.4
2018-Jun-23 12:00N 34°39' E 135°11'713.2
2018-Jun-23 11:30N 34°35' E 135°06'510.0
2018-Jun-23 11:00N 34°38' E 135°00'815.2
2018-Jun-23 10:30N 34°38' E 135°09'4 7.0
2018-Jun-23 10:00N 34°41' E 135°11'0 0.0
2018-Jun-23 09:30N 34°41' E 135°11'0 0.0
2018-Jun-23 09:00N 34°41' E 135°11'3 5.7
2018-Jun-23 08:30N 34°38' E 135°10'3 5.7
2018-Jun-23 08:00N 34°37' E 135°07'510.1
2018-Jun-23 07:30N 34°37' E 135°13'4 7.8
2018-Jun-23 07:00N 34°41' E 135°11'0 0.0
2018-Jun-23 06:25N 34°41' E 135°11'0 0.0
2018-Jun-23 05:49N 34°41' E 135°11'0 0.0
2018-Jun-23 05:25N 34°41' E 135°11'0 0.0
2018-Jun-23 04:57N 34°41' E 135°11'3 6.4
2018-Jun-23 04:30N 34°38' E 135°11'3 5.9
2018-Jun-23 04:01N 34°37' E 135°07'5 9.7
2018-Jun-23 03:30N 34°37' E 135°13'4 7.7
2018-Jun-23 03:00N 34°41' E 135°11'0 0.0
2018-Jun-23 02:26N 34°41' E 135°11'0 0.0
2018-Jun-23 01:56N 34°41' E 135°11'0 0.0
2018-Jun-23 01:20N 34°41' E 135°11'0 0.0
2018-Jun-23 00:50N 34°41' E 135°11'0 0.0
2018-Jun-23 00:26N 34°41' E 135°11'0 0.0
2018-Jun-22 23:56N 34°41' E 135°11'0 0.0
2018-Jun-22 23:26N 34°41' E 135°11'0 0.0
2018-Jun-22 22:56N 34°41' E 135°11'0 0.0
2018-Jun-22 22:26N 34°41' E 135°11'0 0.0
2018-Jun-22 21:50N 34°41' E 135°11'0 0.0
2018-Jun-22 21:26N 34°41' E 135°11'0 0.0
2018-Jun-22 20:50N 34°41' E 135°11'0 0.0
2018-Jun-22 20:20N 34°41' E 135°11'0 0.0
2018-Jun-22 19:56N 34°41' E 135°11'0 0.0
2018-Jun-22 19:26N 34°41' E 135°11'0 0.0
2018-Jun-22 18:56N 34°41' E 135°11'0 0.0
2018-Jun-22 18:26N 34°41' E 135°11'0 0.0
2018-Jun-22 17:56N 34°41' E 135°11'0 0.0
2018-Jun-22 17:26N 34°41' E 135°11'0 0.0
2018-Jun-22 16:56N 34°41' E 135°11'0 0.0
2018-Jun-22 16:20N 34°41' E 135°11'0 0.0
2018-Jun-22 15:56N 34°41' E 135°11'0 0.0
2018-Jun-22 15:20N 34°41' E 135°11'0 0.0
2018-Jun-22 14:56N 34°41' E 135°11'0 0.0
2018-Jun-22 14:26N 34°41' E 135°11'0 0.0
2018-Jun-22 13:56N 34°41' E 135°11'0 0.0
2018-Jun-22 13:26N 34°41' E 135°11'0 0.0
2018-Jun-22 12:56N 34°41' E 135°11'0 0.0
2018-Jun-22 12:26N 34°41' E 135°11'1 2.6
2018-Jun-22 12:00N 34°40' E 135°11'713.5
2018-Jun-22 11:30N 34°35' E 135°06'510.9
2018-Jun-22 11:00N 34°38' E 134°60'713.2
2018-Jun-22 10:31N 34°37' E 135°08'5 9.4
2018-Jun-22 10:00N 34°41' E 135°11'0 0.0
2018-Jun-22 09:19N 34°41' E 135°11'1 3.9
2018-Jun-22 09:00N 34°40' E 135°11'3 6.2
2018-Jun-22 08:29N 34°38' E 135°08'4 8.1
2018-Jun-22 08:01N 34°41' E 135°11'0 0.0
2018-Jun-22 07:19N 34°41' E 135°11'0 0.0
2018-Jun-22 06:49N 34°41' E 135°11'0 0.0
2018-Jun-22 06:25N 34°41' E 135°11'0 0.0
2018-Jun-22 05:43N 34°41' E 135°11'0 0.0
2018-Jun-22 05:25N 34°41' E 135°11'0 0.0
2018-Jun-22 04:54N 34°41' E 135°11'3 6.6
2018-Jun-22 04:30N 34°38' E 135°11'3 5.3
2018-Jun-22 04:00N 34°37' E 135°08'5 9.1
2018-Jun-22 03:30N 34°37' E 135°13'4 7.5
2018-Jun-22 03:00N 34°41' E 135°11'0 0.0
2018-Jun-22 02:28N 34°41' E 135°11'0 0.0
2018-Jun-22 01:58N 34°41' E 135°11'0 0.0
2018-Jun-22 01:04N 34°41' E 135°11'0 0.1
2018-Jun-22 00:58N 34°41' E 135°11'0 0.0
2018-Jun-22 00:28N 34°41' E 135°11'0 0.0
2018-Jun-21 23:58N 34°41' E 135°11'0 0.0
2018-Jun-21 23:28N 34°41' E 135°11'0 0.0
2018-Jun-21 22:58N 34°41' E 135°11'0 0.0
2018-Jun-21 22:28N 34°41' E 135°11'0 0.0
2018-Jun-21 21:58N 34°41' E 135°11'0 0.0
2018-Jun-21 21:28N 34°41' E 135°11'0 0.0
2018-Jun-21 20:52N 34°41' E 135°11'0 0.0
2018-Jun-21 20:28N 34°41' E 135°11'0 0.0
2018-Jun-21 19:52N 34°41' E 135°11'0 0.0
2018-Jun-21 19:28N 34°41' E 135°11'0 0.0
2018-Jun-21 18:58N 34°41' E 135°11'0 0.0
2018-Jun-21 18:28N 34°41' E 135°11'0 0.0
2018-Jun-21 17:58N 34°41' E 135°11'0 0.0
2018-Jun-21 17:22N 34°41' E 135°11'0 0.0
2018-Jun-21 16:58N 34°41' E 135°11'0 0.0
2018-Jun-21 16:22N 34°41' E 135°11'0 0.0
2018-Jun-21 15:58N 34°41' E 135°11'0 0.0
2018-Jun-21 15:28N 34°41' E 135°11'0 0.0
2018-Jun-21 14:46N 34°41' E 135°11'0 0.0
2018-Jun-21 14:16N 34°41' E 135°11'0 0.0
2018-Jun-21 13:58N 34°41' E 135°11'0 0.0
2018-Jun-21 13:28N 34°41' E 135°11'0 0.0
2018-Jun-21 12:58N 34°41' E 135°11'0 0.0
2018-Jun-21 12:28N 34°41' E 135°11'1 3.0
2018-Jun-21 12:00N 34°39' E 135°11'714.0
2018-Jun-21 11:31N 34°35' E 135°05'4 8.3
2018-Jun-21 10:59N 34°37' E 135°01'612.6
2018-Jun-21 10:30N 34°37' E 135°08'5 9.8
2018-Jun-21 10:00N 34°41' E 135°11'0 0.0
2018-Jun-21 09:17N 34°41' E 135°11'1 5.1
2018-Jun-21 09:00N 34°39' E 135°11'3 6.0
2018-Jun-21 08:30N 34°38' E 135°08'4 7.9
2018-Jun-21 08:00N 34°41' E 135°11'0 0.0
2018-Jun-21 07:27N 34°41' E 135°11'0 0.0
2018-Jun-21 06:57N 34°41' E 135°11'0 0.0
2018-Jun-21 06:27N 34°41' E 135°11'0 0.0
2018-Jun-21 05:57N 34°41' E 135°11'0 0.0
2018-Jun-21 05:27N 34°41' E 135°11'0 0.0
2018-Jun-21 04:58N 34°41' E 135°11'3 6.2
2018-Jun-21 04:30N 34°38' E 135°11'1 3.0
2018-Jun-21 04:00N 34°37' E 135°09'3 6.5
2018-Jun-21 03:30N 34°37' E 135°13'4 8.0
2018-Jun-21 03:00N 34°41' E 135°11'0 0.0
2018-Jun-21 02:27N 34°41' E 135°11'0 0.0
2018-Jun-21 01:57N 34°41' E 135°11'0 0.0
2018-Jun-21 01:21N 34°41' E 135°11'0 0.0
2018-Jun-21 00:57N 34°41' E 135°11'0 0.0
2018-Jun-21 00:27N 34°41' E 135°11'0 0.0
2018-Jun-20 23:57N 34°41' E 135°11'0 0.0
2018-Jun-20 23:27N 34°41' E 135°11'0 0.0
2018-Jun-20 22:57N 34°41' E 135°11'0 0.0
2018-Jun-20 22:27N 34°41' E 135°11'0 0.0
2018-Jun-20 21:57N 34°41' E 135°11'0 0.0
2018-Jun-20 21:21N 34°41' E 135°11'0 0.0
2018-Jun-20 20:51N 34°41' E 135°11'0 0.0
2018-Jun-20 20:21N 34°41' E 135°11'0 0.0
2018-Jun-20 19:57N 34°41' E 135°11'0 0.0
2018-Jun-20 19:27N 34°41' E 135°11'0 0.0
2018-Jun-20 18:51N 34°41' E 135°11'0 0.0
2018-Jun-20 18:27N 34°41' E 135°11'0 0.0
2018-Jun-20 17:57N 34°41' E 135°11'0 0.0
2018-Jun-20 17:27N 34°41' E 135°11'0 0.0
2018-Jun-20 16:57N 34°41' E 135°11'0 0.0
2018-Jun-20 16:27N 34°41' E 135°11'0 0.0
2018-Jun-20 15:57N 34°41' E 135°11'0 0.0
2018-Jun-20 15:27N 34°41' E 135°11'0 0.0
2018-Jun-20 14:57N 34°41' E 135°11'0 0.0
2018-Jun-20 14:21N 34°41' E 135°11'0 0.0
2018-Jun-20 13:57N 34°41' E 135°11'0 0.0
2018-Jun-20 13:15N 34°41' E 135°11'0 0.0
2018-Jun-20 12:57N 34°41' E 135°11'0 0.0
2018-Jun-20 12:21N 34°41' E 135°11'0 0.4
2018-Jun-20 12:00N 34°41' E 135°11'4 8.2
2018-Jun-20 11:28N 34°36' E 135°10'1 1.1
2018-Jun-20 11:00N 34°37' E 135°10'2 4.6
2018-Jun-20 10:30N 34°37' E 135°07'510.1
2018-Jun-20 10:00N 34°41' E 135°11'0 0.0
2018-Jun-20 09:25N 34°41' E 135°11'1 2.7
2018-Jun-20 09:00N 34°40' E 135°12'4 8.1
2018-Jun-20 08:30N 34°38' E 135°07'5 9.1
2018-Jun-20 08:00N 34°41' E 135°11'0 0.0
2018-Jun-20 07:26N 34°41' E 135°11'0 0.0
2018-Jun-20 06:50N 34°41' E 135°11'0 0.0
2018-Jun-20 06:26N 34°41' E 135°11'0 0.0
2018-Jun-20 05:56N 34°41' E 135°11'0 0.0
2018-Jun-20 05:26N 34°41' E 135°11'0 0.0
2018-Jun-20 05:00N 34°41' E 135°11'3 5.4
2018-Jun-20 04:30N 34°38' E 135°10'4 7.9
2018-Jun-20 04:00N 34°37' E 135°06'510.5
2018-Jun-20 03:31N 34°38' E 135°12'3 6.7
2018-Jun-20 03:01N 34°41' E 135°11'0 0.0
2018-Jun-20 02:30N 34°41' E 135°11'0 0.0
2018-Jun-20 02:00N 34°41' E 135°11'0 0.0
2018-Jun-20 01:30N 34°41' E 135°11'0 0.0
2018-Jun-20 00:24N 34°41' E 135°11'0 0.0
2018-Jun-20 00:00N 34°41' E 135°11'0 0.0
2018-Jun-19 23:30N 34°41' E 135°11'0 0.0
2018-Jun-19 22:54N 34°41' E 135°11'0 0.0
2018-Jun-19 22:18N 34°41' E 135°11'0 0.0
2018-Jun-19 22:00N 34°41' E 135°11'0 0.0
2018-Jun-19 21:30N 34°41' E 135°11'0 0.0
2018-Jun-19 20:54N 34°41' E 135°11'0 0.0
2018-Jun-19 20:30N 34°41' E 135°11'0 0.0
2018-Jun-19 20:00N 34°41' E 135°11'0 0.0
2018-Jun-19 19:30N 34°41' E 135°11'0 0.0
2018-Jun-19 19:00N 34°41' E 135°11'0 0.0
2018-Jun-19 18:30N 34°41' E 135°11'0 0.0
2018-Jun-19 17:48N 34°41' E 135°11'0 0.0
2018-Jun-19 17:30N 34°41' E 135°11'0 0.0
2018-Jun-19 17:00N 34°41' E 135°11'0 0.0
2018-Jun-19 16:30N 34°41' E 135°11'0 0.0
2018-Jun-19 16:00N 34°41' E 135°11'0 0.0
2018-Jun-19 15:30N 34°41' E 135°11'0 0.0
2018-Jun-19 15:00N 34°41' E 135°11'0 0.0
2018-Jun-19 14:30N 34°41' E 135°11'0 0.0
2018-Jun-19 14:00N 34°41' E 135°11'0 0.0
2018-Jun-19 13:30N 34°41' E 135°11'0 0.0
2018-Jun-19 13:00N 34°41' E 135°11'0 0.0
2018-Jun-19 12:24N 34°41' E 135°11'1 2.7
2018-Jun-19 12:00N 34°40' E 135°12'611.3
2018-Jun-19 11:30N 34°36' E 135°07'611.7
2018-Jun-19 10:59N 34°38' E 134°60'613.0
2018-Jun-19 10:30N 34°37' E 135°07'5 9.8
2018-Jun-19 10:00N 34°41' E 135°11'0 0.0
2018-Jun-19 09:19N 34°41' E 135°11'1 3.1
2018-Jun-19 09:00N 34°40' E 135°12'4 8.8
2018-Jun-19 08:30N 34°37' E 135°07'5 9.6
2018-Jun-19 08:00N 34°41' E 135°11'0 0.0
2018-Jun-19 07:17N 34°41' E 135°11'0 0.0
2018-Jun-19 06:59N 34°41' E 135°11'0 0.0
2018-Jun-19 06:29N 34°41' E 135°11'0 0.0
2018-Jun-19 05:53N 34°41' E 135°11'0 0.0
2018-Jun-19 05:29N 34°41' E 135°11'0 0.0
2018-Jun-19 04:57N 34°41' E 135°11'3 5.8
2018-Jun-19 04:30N 34°38' E 135°11'3 5.2
2018-Jun-19 04:00N 34°37' E 135°08'3 6.5
2018-Jun-19 03:29N 34°38' E 135°12'3 7.0
2018-Jun-19 03:00N 34°41' E 135°11'0 0.0
2018-Jun-19 02:28N 34°41' E 135°11'0 0.0
2018-Jun-19 01:58N 34°41' E 135°11'0 0.0
2018-Jun-19 01:28N 34°41' E 135°11'0 0.0
2018-Jun-19 00:58N 34°41' E 135°11'0 0.0
2018-Jun-19 00:28N 34°41' E 135°11'0 0.0
2018-Jun-18 23:58N 34°41' E 135°11'0 0.0
2018-Jun-18 23:28N 34°41' E 135°11'0 0.0
2018-Jun-18 22:58N 34°41' E 135°11'0 0.0
2018-Jun-18 22:28N 34°41' E 135°11'0 0.0
2018-Jun-18 21:58N 34°41' E 135°11'0 0.0
2018-Jun-18 21:28N 34°41' E 135°11'0 0.0
2018-Jun-18 20:52N 34°41' E 135°11'0 0.0
2018-Jun-18 20:28N 34°41' E 135°11'0 0.0
2018-Jun-18 19:58N 34°41' E 135°11'0 0.0
2018-Jun-18 19:22N 34°41' E 135°11'0 0.0
2018-Jun-18 18:58N 34°41' E 135°11'0 0.0
2018-Jun-18 18:28N 34°41' E 135°11'0 0.0
2018-Jun-18 17:58N 34°41' E 135°11'0 0.0
2018-Jun-18 17:28N 34°41' E 135°11'0 0.0
2018-Jun-18 16:58N 34°41' E 135°11'0 0.0
2018-Jun-18 16:28N 34°41' E 135°11'0 0.0
2018-Jun-18 15:58N 34°41' E 135°11'0 0.0
2018-Jun-18 15:16N 34°41' E 135°11'0 0.0
2018-Jun-18 14:58N 34°41' E 135°11'0 0.0
2018-Jun-18 14:28N 34°41' E 135°11'0 0.0
2018-Jun-18 13:58N 34°41' E 135°11'0 0.0
2018-Jun-18 13:28N 34°41' E 135°11'0 0.0
2018-Jun-18 12:58N 34°41' E 135°11'0 0.0
2018-Jun-18 12:28N 34°41' E 135°11'1 2.7
2018-Jun-18 11:59N 34°40' E 135°11'611.8
2018-Jun-18 11:30N 34°35' E 135°06'713.5
2018-Jun-18 11:00N 34°37' E 134°59'713.9
2018-Jun-18 10:31N 34°37' E 135°07'510.2
2018-Jun-18 10:00N 34°41' E 135°11'0 0.0
2018-Jun-18 09:23N 34°41' E 135°11'1 2.4
2018-Jun-18 09:00N 34°40' E 135°12'4 8.6
2018-Jun-18 08:31N 34°37' E 135°07'5 9.1
2018-Jun-18 08:00N 34°41' E 135°11'0 0.0
2018-Jun-18 07:26N 34°41' E 135°11'0 0.0
2018-Jun-18 06:56N 34°41' E 135°11'0 0.0
2018-Jun-18 06:20N 34°41' E 135°11'0 0.0
2018-Jun-18 05:56N 34°41' E 135°11'0 0.0
2018-Jun-18 05:26N 34°41' E 135°11'0 0.0
2018-Jun-18 05:00N 34°41' E 135°11'3 5.4
2018-Jun-18 04:30N 34°38' E 135°11'3 6.1
2018-Jun-18 04:00N 34°37' E 135°07'4 8.9
2018-Jun-18 03:30N 34°38' E 135°13'3 6.8
2018-Jun-18 03:00N 34°41' E 135°11'0 0.0
2018-Jun-18 02:28N 34°41' E 135°11'0 0.0
2018-Jun-18 01:58N 34°41' E 135°11'0 0.0
2018-Jun-18 01:28N 34°41' E 135°11'0 0.0
2018-Jun-18 00:52N 34°41' E 135°11'0 0.0
2018-Jun-18 00:22N 34°41' E 135°11'0 0.0
2018-Jun-17 23:58N 34°41' E 135°11'0 0.0
2018-Jun-17 23:28N 34°41' E 135°11'0 0.0
2018-Jun-17 22:46N 34°41' E 135°11'0 0.0
2018-Jun-17 22:28N 34°41' E 135°11'0 0.0
2018-Jun-17 21:58N 34°41' E 135°11'0 0.0
2018-Jun-17 21:28N 34°41' E 135°11'0 0.0
2018-Jun-17 20:58N 34°41' E 135°11'0 0.0
2018-Jun-17 20:28N 34°41' E 135°11'0 0.0
2018-Jun-17 19:58N 34°41' E 135°11'0 0.0
2018-Jun-17 19:28N 34°41' E 135°11'0 0.0
2018-Jun-17 18:52N 34°41' E 135°11'0 0.0
2018-Jun-17 18:16N 34°41' E 135°11'0 0.0
2018-Jun-17 17:58N 34°41' E 135°11'0 0.0
2018-Jun-17 17:28N 34°41' E 135°11'0 0.0
2018-Jun-17 16:52N 34°41' E 135°11'0 0.0
2018-Jun-17 16:28N 34°41' E 135°11'0 0.0
2018-Jun-17 15:52N 34°41' E 135°11'0 0.0
2018-Jun-17 15:28N 34°41' E 135°11'0 0.0
2018-Jun-17 14:58N 34°41' E 135°11'0 0.0
2018-Jun-17 14:28N 34°41' E 135°11'0 0.0
2018-Jun-17 13:58N 34°41' E 135°11'0 0.0
2018-Jun-17 13:28N 34°41' E 135°11'0 0.0
2018-Jun-17 12:58N 34°41' E 135°11'0 0.0
2018-Jun-17 12:28N 34°41' E 135°11'1 2.6
2018-Jun-17 12:00N 34°40' E 135°12'612.1
2018-Jun-17 11:30N 34°36' E 135°06'611.8
2018-Jun-17 11:00N 34°37' E 134°59'612.9
2018-Jun-17 10:31N 34°37' E 135°07'510.1
2018-Jun-17 10:00N 34°41' E 135°11'0 0.0
2018-Jun-17 09:30N 34°41' E 135°11'0 0.0
2018-Jun-17 09:00N 34°41' E 135°11'2 3.9
2018-Jun-17 08:30N 34°39' E 135°11'3 6.3
2018-Jun-17 08:00N 34°37' E 135°08'4 7.5
2018-Jun-17 07:30N 34°37' E 135°13'4 7.1
2018-Jun-17 07:00N 34°41' E 135°11'0 0.0
2018-Jun-17 06:26N 34°41' E 135°11'0 0.0
2018-Jun-17 05:56N 34°41' E 135°11'0 0.0
2018-Jun-17 05:26N 34°41' E 135°11'0 0.0
2018-Jun-17 05:00N 34°41' E 135°11'3 5.3
2018-Jun-17 04:30N 34°38' E 135°11'4 8.1
2018-Jun-17 04:00N 34°36' E 135°06'510.3
2018-Jun-17 03:30N 34°38' E 135°12'3 6.9
2018-Jun-17 03:00N 34°41' E 135°11'0 0.0
2018-Jun-17 02:26N 34°41' E 135°11'0 0.0
2018-Jun-17 01:08N 34°41' E 135°11'0 0.0
2018-Jun-17 00:56N 34°41' E 135°11'0 0.0
2018-Jun-17 00:26N 34°41' E 135°11'0 0.0
2018-Jun-16 23:56N 34°41' E 135°11'0 0.0
2018-Jun-16 23:26N 34°41' E 135°11'0 0.0
2018-Jun-16 22:56N 34°41' E 135°11'0 0.0
2018-Jun-16 22:20N 34°41' E 135°11'0 0.0
2018-Jun-16 21:56N 34°41' E 135°11'0 0.0
2018-Jun-16 21:26N 34°41' E 135°11'0 0.0
2018-Jun-16 20:50N 34°41' E 135°11'0 0.0
2018-Jun-16 20:26N 34°41' E 135°11'0 0.0
2018-Jun-16 19:50N 34°41' E 135°11'0 0.0
2018-Jun-16 19:26N 34°41' E 135°11'0 0.0
2018-Jun-16 18:56N 34°41' E 135°11'0 0.0
2018-Jun-16 18:26N 34°41' E 135°11'0 0.0
2018-Jun-16 17:56N 34°41' E 135°11'0 0.0
2018-Jun-16 17:26N 34°41' E 135°11'0 0.0
2018-Jun-16 16:56N 34°41' E 135°11'0 0.0
2018-Jun-16 16:26N 34°41' E 135°11'0 0.0
2018-Jun-16 15:56N 34°41' E 135°11'0 0.0
2018-Jun-16 15:26N 34°41' E 135°11'0 0.0
2018-Jun-16 14:50N 34°41' E 135°11'0 0.0
2018-Jun-16 14:20N 34°41' E 135°11'0 0.0
2018-Jun-16 13:56N 34°41' E 135°11'0 0.0
2018-Jun-16 13:26N 34°41' E 135°11'0 0.0
2018-Jun-16 12:56N 34°41' E 135°11'0 0.0
2018-Jun-16 12:26N 34°41' E 135°11'2 3.8
2018-Jun-16 12:00N 34°39' E 135°11'612.0
2018-Jun-16 11:30N 34°35' E 135°06'611.9
2018-Jun-16 10:59N 34°37' E 134°59'715.2
2018-Jun-16 10:31N 34°37' E 135°07'5 9.5
2018-Jun-16 10:00N 34°41' E 135°11'0 0.0
2018-Jun-16 09:30N 34°41' E 135°11'0 0.0
2018-Jun-16 09:00N 34°41' E 135°11'2 3.6
2018-Jun-16 08:31N 34°39' E 135°11'4 7.6
2018-Jun-16 08:00N 34°37' E 135°07'4 8.0
2018-Jun-16 07:30N 34°38' E 135°12'3 6.5
2018-Jun-16 07:00N 34°41' E 135°11'0 0.0
2018-Jun-16 06:25N 34°41' E 135°11'0 0.0
2018-Jun-16 05:55N 34°41' E 135°11'0 0.0
2018-Jun-16 05:25N 34°41' E 135°11'0 0.0
2018-Jun-16 05:00N 34°41' E 135°11'3 5.0
2018-Jun-16 04:30N 34°38' E 135°11'4 7.8
2018-Jun-16 04:00N 34°37' E 135°06'5 9.5
2018-Jun-16 03:31N 34°38' E 135°12'3 6.3
2018-Jun-16 03:00N 34°41' E 135°11'0 0.0
2018-Jun-16 02:24N 34°41' E 135°11'0 0.0
2018-Jun-16 02:00N 34°41' E 135°11'0 0.0
2018-Jun-16 01:30N 34°41' E 135°11'0 0.0
2018-Jun-16 01:00N 34°41' E 135°11'0 0.0
2018-Jun-16 00:24N 34°41' E 135°11'0 0.0
2018-Jun-16 00:00N 34°41' E 135°11'0 0.0
2018-Jun-15 23:24N 34°41' E 135°11'0 0.0
2018-Jun-15 23:00N 34°41' E 135°11'0 0.0
2018-Jun-15 22:30N 34°41' E 135°11'0 0.0
2018-Jun-15 22:00N 34°41' E 135°11'0 0.0
2018-Jun-15 21:30N 34°41' E 135°11'0 0.0
2018-Jun-15 20:54N 34°41' E 135°11'0 0.0
2018-Jun-15 20:18N 34°41' E 135°11'0 0.0
2018-Jun-15 19:48N 34°41' E 135°11'0 0.0
2018-Jun-15 19:30N 34°41' E 135°11'  
Track history (hours):
 
Tides and Currents Weather Stations Pressure Air Temp Water Temp Dewpoint Dewpoint Depression Visibility Wind Speed Wind Dir Waves Ship Positions

Luminous Kobe-2

Last reported at 2018-Jun-25 19:26 UTC. Time now 2018-Jun-25 19:39 UTC.
Position N 34°41' E 135°11'.

Length 105 m; draft 4.4 m.

Type: Passenger vessel. MMSI: 431000469.

Date/timePositionNaut miles runAvg speedWind from/ knotsBaromVisibWave heightAir tempDewpointWater temp
2018-Jun-25 19:26N 34°41' E 135°11'0 0.0
2018-Jun-25 18:56N 34°41' E 135°11'0 0.0
2018-Jun-25 18:26N 34°41' E 135°11'0 0.0
2018-Jun-25 17:56N 34°41' E 135°11'0 0.0
2018-Jun-25 17:26N 34°41' E 135°11'0 0.0
2018-Jun-25 16:56N 34°41' E 135°11'0 0.0
2018-Jun-25 16:26N 34°41' E 135°11'0 0.0
2018-Jun-25 15:56N 34°41' E 135°11'0 0.0
2018-Jun-25 15:20N 34°41' E 135°11'0 0.0
2018-Jun-25 14:50N 34°41' E 135°11'0 0.0
2018-Jun-25 14:26N 34°41' E 135°11'0 0.0
2018-Jun-25 13:56N 34°41' E 135°11'0 0.0
2018-Jun-25 13:26N 34°41' E 135°11'0 0.0
2018-Jun-25 12:56N 34°41' E 135°11'0 0.0
2018-Jun-25 12:26N 34°41' E 135°11'1 2.9
2018-Jun-25 12:00N 34°40' E 135°11'713.2
2018-Jun-25 11:30N 34°35' E 135°05'611.9
2018-Jun-25 11:00N 34°37' E 134°58'815.4
2018-Jun-25 10:30N 34°37' E 135°08'5 9.8
2018-Jun-25 10:00N 34°41' E 135°11'0 0.0
2018-Jun-25 09:25N 34°41' E 135°11'1 2.8
2018-Jun-25 09:00N 34°40' E 135°11'3 6.7
2018-Jun-25 08:30N 34°38' E 135°08'4 8.4
2018-Jun-25 08:00N 34°41' E 135°11'0 0.0
2018-Jun-25 07:26N 34°41' E 135°11'0 0.0
2018-Jun-25 06:44N 34°41' E 135°11'0 0.0
2018-Jun-25 06:26N 34°41' E 135°11'0 0.0
2018-Jun-25 05:56N 34°41' E 135°11'0 0.0
2018-Jun-25 05:26N 34°41' E 135°11'0 0.0
2018-Jun-25 04:56N 34°41' E 135°11'3 6.2
2018-Jun-25 04:30N 34°38' E 135°11'1 2.8
2018-Jun-25 04:00N 34°37' E 135°11'1 3.0
2018-Jun-25 03:30N 34°38' E 135°12'3 6.7
2018-Jun-25 03:00N 34°41' E 135°11'0 0.0
2018-Jun-25 02:28N 34°41' E 135°11'0 0.0
2018-Jun-25 01:58N 34°41' E 135°11'0 0.0
2018-Jun-25 01:28N 34°41' E 135°11'0 0.0
2018-Jun-25 00:58N 34°41' E 135°11'0 0.0
2018-Jun-25 00:22N 34°41' E 135°11'0 0.0
2018-Jun-24 23:46N 34°41' E 135°11'0 0.0
2018-Jun-24 23:28N 34°41' E 135°11'0 0.0
2018-Jun-24 22:58N 34°41' E 135°11'0 0.0
2018-Jun-24 22:22N 34°41' E 135°11'0 0.0
2018-Jun-24 21:58N 34°41' E 135°11'0 0.0
2018-Jun-24 21:28N 34°41' E 135°11'0 0.0
2018-Jun-24 20:58N 34°41' E 135°11'0 0.0
2018-Jun-24 20:28N 34°41' E 135°11'0 0.0
2018-Jun-24 19:58N 34°41' E 135°11'0 0.0
2018-Jun-24 19:28N 34°41' E 135°11'0 0.0
2018-Jun-24 18:58N 34°41' E 135°11'0 0.0
2018-Jun-24 18:22N 34°41' E 135°11'0 0.0
2018-Jun-24 17:58N 34°41' E 135°11'0 0.0
2018-Jun-24 17:22N 34°41' E 135°11'0 0.0
2018-Jun-24 16:58N 34°41' E 135°11'0 0.0
2018-Jun-24 16:28N 34°41' E 135°11'0 0.0
2018-Jun-24 15:58N 34°41' E 135°11'0 0.0
2018-Jun-24 15:28N 34°41' E 135°11'0 0.0
2018-Jun-24 14:58N 34°41' E 135°11'0 0.0
2018-Jun-24 14:28N 34°41' E 135°11'0 0.0
2018-Jun-24 13:46N 34°41' E 135°11'0 0.0
2018-Jun-24 13:28N 34°41' E 135°11'0 0.0
2018-Jun-24 12:58N 34°41' E 135°11'0 0.0
2018-Jun-24 12:28N 34°41' E 135°11'1 1.9
2018-Jun-24 12:00N 34°40' E 135°11'612.1
2018-Jun-24 11:31N 34°36' E 135°06'612.6
2018-Jun-24 11:01N 34°37' E 134°59'714.2
2018-Jun-24 10:31N 34°37' E 135°08'510.2
2018-Jun-24 10:00N 34°41' E 135°11'0 0.0
2018-Jun-24 09:28N 34°41' E 135°11'0 0.0
2018-Jun-24 08:54N 34°41' E 135°11'3 7.0
2018-Jun-24 08:30N 34°38' E 135°10'3 5.5
2018-Jun-24 08:00N 34°37' E 135°08'5 9.7
2018-Jun-24 07:30N 34°37' E 135°13'4 7.9
2018-Jun-24 07:00N 34°41' E 135°11'0 0.0
2018-Jun-24 06:25N 34°41' E 135°11'0 0.0
2018-Jun-24 05:49N 34°41' E 135°11'0 0.0
2018-Jun-24 05:31N 34°41' E 135°11'0 0.0
2018-Jun-24 04:55N 34°41' E 135°11'2 5.8
2018-Jun-24 04:30N 34°38' E 135°11'3 6.3
2018-Jun-24 04:00N 34°37' E 135°08'5 9.5
2018-Jun-24 03:30N 34°37' E 135°13'4 7.3
2018-Jun-24 02:58N 34°41' E 135°11'0 0.0
2018-Jun-24 02:19N 34°41' E 135°11'0 0.0
2018-Jun-24 01:55N 34°41' E 135°11'0 0.0
2018-Jun-24 01:25N 34°41' E 135°11'0 0.0
2018-Jun-24 00:55N 34°41' E 135°11'0 0.0
2018-Jun-24 00:25N 34°41' E 135°11'0 0.0
2018-Jun-23 23:55N 34°41' E 135°11'0 0.0
2018-Jun-23 23:25N 34°41' E 135°11'0 0.0
2018-Jun-23 22:55N 34°41' E 135°11'0 0.0
2018-Jun-23 22:25N 34°41' E 135°11'0 0.0
2018-Jun-23 21:49N 34°41' E 135°11'0 0.0
2018-Jun-23 21:25N 34°41' E 135°11'0 0.0
2018-Jun-23 20:55N 34°41' E 135°11'0 0.0
2018-Jun-23 20:19N 34°41' E 135°11'0 0.0
2018-Jun-23 19:55N 34°41' E 135°11'0 0.0
2018-Jun-23 19:25N 34°41' E 135°11'0 0.0
2018-Jun-23 18:55N 34°41' E 135°11'0 0.0
2018-Jun-23 18:25N 34°41' E 135°11'0 0.0
2018-Jun-23 17:49N 34°41' E 135°11'0 0.0
2018-Jun-23 17:25N 34°41' E 135°11'0 0.0
2018-Jun-23 16:55N 34°41' E 135°11'0 0.0
2018-Jun-23 16:19N 34°41' E 135°11'0 0.0
2018-Jun-23 15:55N 34°41' E 135°11'0 0.0
2018-Jun-23 15:25N 34°41' E 135°11'0 0.0
2018-Jun-23 14:49N 34°41' E 135°11'0 0.0
2018-Jun-23 14:25N 34°41' E 135°11'0 0.0
2018-Jun-23 13:55N 34°41' E 135°11'0 0.0
2018-Jun-23 13:25N 34°41' E 135°11'0 0.0
2018-Jun-23 12:55N 34°41' E 135°11'0 0.0
2018-Jun-23 12:25N 34°41' E 135°11'1 3.4
2018-Jun-23 12:00N 34°39' E 135°11'713.2
2018-Jun-23 11:30N 34°35' E 135°06'510.0
2018-Jun-23 11:00N 34°38' E 135°00'815.2
2018-Jun-23 10:30N 34°38' E 135°09'4 7.0
2018-Jun-23 10:00N 34°41' E 135°11'0 0.0
2018-Jun-23 09:30N 34°41' E 135°11'0 0.0
2018-Jun-23 09:00N 34°41' E 135°11'3 5.7
2018-Jun-23 08:30N 34°38' E 135°10'3 5.7
2018-Jun-23 08:00N 34°37' E 135°07'510.1
2018-Jun-23 07:30N 34°37' E 135°13'4 7.8
2018-Jun-23 07:00N 34°41' E 135°11'0 0.0
2018-Jun-23 06:25N 34°41' E 135°11'0 0.0
2018-Jun-23 05:49N 34°41' E 135°11'0 0.0
2018-Jun-23 05:25N 34°41' E 135°11'0 0.0
2018-Jun-23 04:57N 34°41' E 135°11'3 6.4
2018-Jun-23 04:30N 34°38' E 135°11'3 5.9
2018-Jun-23 04:01N 34°37' E 135°07'5 9.7
2018-Jun-23 03:30N 34°37' E 135°13'4 7.7
2018-Jun-23 03:00N 34°41' E 135°11'0 0.0
2018-Jun-23 02:26N 34°41' E 135°11'0 0.0
2018-Jun-23 01:56N 34°41' E 135°11'0 0.0
2018-Jun-23 01:20N 34°41' E 135°11'0 0.0
2018-Jun-23 00:50N 34°41' E 135°11'0 0.0
2018-Jun-23 00:26N 34°41' E 135°11'0 0.0
2018-Jun-22 23:56N 34°41' E 135°11'0 0.0
2018-Jun-22 23:26N 34°41' E 135°11'0 0.0
2018-Jun-22 22:56N 34°41' E 135°11'0 0.0
2018-Jun-22 22:26N 34°41' E 135°11'0 0.0
2018-Jun-22 21:50N 34°41' E 135°11'0 0.0
2018-Jun-22 21:26N 34°41' E 135°11'0 0.0
2018-Jun-22 20:50N 34°41' E 135°11'0 0.0
2018-Jun-22 20:20N 34°41' E 135°11'0 0.0
2018-Jun-22 19:56N 34°41' E 135°11'0 0.0
2018-Jun-22 19:26N 34°41' E 135°11'0 0.0
2018-Jun-22 18:56N 34°41' E 135°11'0 0.0
2018-Jun-22 18:26N 34°41' E 135°11'0 0.0
2018-Jun-22 17:56N 34°41' E 135°11'0 0.0
2018-Jun-22 17:26N 34°41' E 135°11'0 0.0
2018-Jun-22 16:56N 34°41' E 135°11'0 0.0
2018-Jun-22 16:20N 34°41' E 135°11'0 0.0
2018-Jun-22 15:56N 34°41' E 135°11'0 0.0
2018-Jun-22 15:20N 34°41' E 135°11'0 0.0
2018-Jun-22 14:56N 34°41' E 135°11'0 0.0
2018-Jun-22 14:26N 34°41' E 135°11'0 0.0
2018-Jun-22 13:56N 34°41' E 135°11'0 0.0
2018-Jun-22 13:26N 34°41' E 135°11'0 0.0
2018-Jun-22 12:56N 34°41' E 135°11'0 0.0
2018-Jun-22 12:26N 34°41' E 135°11'1 2.6
2018-Jun-22 12:00N 34°40' E 135°11'713.5
2018-Jun-22 11:30N 34°35' E 135°06'510.9
2018-Jun-22 11:00N 34°38' E 134°60'713.2
2018-Jun-22 10:31N 34°37' E 135°08'5 9.4
2018-Jun-22 10:00N 34°41' E 135°11'0 0.0
2018-Jun-22 09:19N 34°41' E 135°11'1 3.9
2018-Jun-22 09:00N 34°40' E 135°11'3 6.2
2018-Jun-22 08:29N 34°38' E 135°08'4 8.1
2018-Jun-22 08:01N 34°41' E 135°11'0 0.0
2018-Jun-22 07:19N 34°41' E 135°11'0 0.0
2018-Jun-22 06:49N 34°41' E 135°11'0 0.0
2018-Jun-22 06:25N 34°41' E 135°11'0 0.0
2018-Jun-22 05:43N 34°41' E 135°11'0 0.0
2018-Jun-22 05:25N 34°41' E 135°11'0 0.0
2018-Jun-22 04:54N 34°41' E 135°11'3 6.6
2018-Jun-22 04:30N 34°38' E 135°11'3 5.3
2018-Jun-22 04:00N 34°37' E 135°08'5 9.1
2018-Jun-22 03:30N 34°37' E 135°13'4 7.5
2018-Jun-22 03:00N 34°41' E 135°11'0 0.0
2018-Jun-22 02:28N 34°41' E 135°11'0 0.0
2018-Jun-22 01:58N 34°41' E 135°11'0 0.0
2018-Jun-22 01:04N 34°41' E 135°11'0 0.1
2018-Jun-22 00:58N 34°41' E 135°11'0 0.0
2018-Jun-22 00:28N 34°41' E 135°11'0 0.0
2018-Jun-21 23:58N 34°41' E 135°11'0 0.0
2018-Jun-21 23:28N 34°41' E 135°11'0 0.0
2018-Jun-21 22:58N 34°41' E 135°11'0 0.0
2018-Jun-21 22:28N 34°41' E 135°11'0 0.0
2018-Jun-21 21:58N 34°41' E 135°11'0 0.0
2018-Jun-21 21:28N 34°41' E 135°11'0 0.0
2018-Jun-21 20:52N 34°41' E 135°11'0 0.0
2018-Jun-21 20:28N 34°41' E 135°11'0 0.0
2018-Jun-21 19:52N 34°41' E 135°11'0 0.0
2018-Jun-21 19:28N 34°41' E 135°11'0 0.0
2018-Jun-21 18:58N 34°41' E 135°11'0 0.0
2018-Jun-21 18:28N 34°41' E 135°11'0 0.0
2018-Jun-21 17:58N 34°41' E 135°11'0 0.0
2018-Jun-21 17:22N 34°41' E 135°11'0 0.0
2018-Jun-21 16:58N 34°41' E 135°11'0 0.0
2018-Jun-21 16:22N 34°41' E 135°11'0 0.0
2018-Jun-21 15:58N 34°41' E 135°11'0 0.0
2018-Jun-21 15:28N 34°41' E 135°11'0 0.0
2018-Jun-21 14:46N 34°41' E 135°11'0 0.0
2018-Jun-21 14:16N 34°41' E 135°11'0 0.0
2018-Jun-21 13:58N 34°41' E 135°11'0 0.0
2018-Jun-21 13:28N 34°41' E 135°11'0 0.0
2018-Jun-21 12:58N 34°41' E 135°11'0 0.0
2018-Jun-21 12:28N 34°41' E 135°11'1 3.0
2018-Jun-21 12:00N 34°39' E 135°11'714.0
2018-Jun-21 11:31N 34°35' E 135°05'4 8.3
2018-Jun-21 10:59N 34°37' E 135°01'612.6
2018-Jun-21 10:30N 34°37' E 135°08'5 9.8
2018-Jun-21 10:00N 34°41' E 135°11'0 0.0
2018-Jun-21 09:17N 34°41' E 135°11'1 5.1
2018-Jun-21 09:00N 34°39' E 135°11'3 6.0
2018-Jun-21 08:30N 34°38' E 135°08'4 7.9
2018-Jun-21 08:00N 34°41' E 135°11'0 0.0
2018-Jun-21 07:27N 34°41' E 135°11'0 0.0
2018-Jun-21 06:57N 34°41' E 135°11'0 0.0
2018-Jun-21 06:27N 34°41' E 135°11'0 0.0
2018-Jun-21 05:57N 34°41' E 135°11'0 0.0
2018-Jun-21 05:27N 34°41' E 135°11'0 0.0
2018-Jun-21 04:58N 34°41' E 135°11'3 6.2
2018-Jun-21 04:30N 34°38' E 135°11'1 3.0
2018-Jun-21 04:00N 34°37' E 135°09'3 6.5
2018-Jun-21 03:30N 34°37' E 135°13'4 8.0
2018-Jun-21 03:00N 34°41' E 135°11'0 0.0
2018-Jun-21 02:27N 34°41' E 135°11'0 0.0
2018-Jun-21 01:57N 34°41' E 135°11'0 0.0
2018-Jun-21 01:21N 34°41' E 135°11'0 0.0
2018-Jun-21 00:57N 34°41' E 135°11'0 0.0
2018-Jun-21 00:27N 34°41' E 135°11'0 0.0
2018-Jun-20 23:57N 34°41' E 135°11'0 0.0
2018-Jun-20 23:27N 34°41' E 135°11'0 0.0
2018-Jun-20 22:57N 34°41' E 135°11'0 0.0
2018-Jun-20 22:27N 34°41' E 135°11'0 0.0
2018-Jun-20 21:57N 34°41' E 135°11'0 0.0
2018-Jun-20 21:21N 34°41' E 135°11'0 0.0
2018-Jun-20 20:51N 34°41' E 135°11'0 0.0
2018-Jun-20 20:21N 34°41' E 135°11'0 0.0
2018-Jun-20 19:57N 34°41' E 135°11'0 0.0
2018-Jun-20 19:27N 34°41' E 135°11'0 0.0
2018-Jun-20 18:51N 34°41' E 135°11'0 0.0
2018-Jun-20 18:27N 34°41' E 135°11'0 0.0
2018-Jun-20 17:57N 34°41' E 135°11'0 0.0
2018-Jun-20 17:27N 34°41' E 135°11'0 0.0
2018-Jun-20 16:57N 34°41' E 135°11'0 0.0
2018-Jun-20 16:27N 34°41' E 135°11'0 0.0
2018-Jun-20 15:57N 34°41' E 135°11'0 0.0
2018-Jun-20 15:27N 34°41' E 135°11'0 0.0
2018-Jun-20 14:57N 34°41' E 135°11'0 0.0
2018-Jun-20 14:21N 34°41' E 135°11'0 0.0
2018-Jun-20 13:57N 34°41' E 135°11'0 0.0
2018-Jun-20 13:15N 34°41' E 135°11'0 0.0
2018-Jun-20 12:57N 34°41' E 135°11'0 0.0
2018-Jun-20 12:21N 34°41' E 135°11'0 0.4
2018-Jun-20 12:00N 34°41' E 135°11'4 8.2
2018-Jun-20 11:28N 34°36' E 135°10'1 1.1
2018-Jun-20 11:00N 34°37' E 135°10'2 4.6
2018-Jun-20 10:30N 34°37' E 135°07'510.1
2018-Jun-20 10:00N 34°41' E 135°11'0 0.0
2018-Jun-20 09:25N 34°41' E 135°11'1 2.7
2018-Jun-20 09:00N 34°40' E 135°12'4 8.1
2018-Jun-20 08:30N 34°38' E 135°07'5 9.1
2018-Jun-20 08:00N 34°41' E 135°11'0 0.0
2018-Jun-20 07:26N 34°41' E 135°11'0 0.0
2018-Jun-20 06:50N 34°41' E 135°11'0 0.0
2018-Jun-20 06:26N 34°41' E 135°11'0 0.0
2018-Jun-20 05:56N 34°41' E 135°11'0 0.0
2018-Jun-20 05:26N 34°41' E 135°11'0 0.0
2018-Jun-20 05:00N 34°41' E 135°11'3 5.4
2018-Jun-20 04:30N 34°38' E 135°10'4 7.9
2018-Jun-20 04:00N 34°37' E 135°06'510.5
2018-Jun-20 03:31N 34°38' E 135°12'3 6.7
2018-Jun-20 03:01N 34°41' E 135°11'0 0.0
2018-Jun-20 02:30N 34°41' E 135°11'0 0.0
2018-Jun-20 02:00N 34°41' E 135°11'0 0.0
2018-Jun-20 01:30N 34°41' E 135°11'0 0.0
2018-Jun-20 00:24N 34°41' E 135°11'0 0.0
2018-Jun-20 00:00N 34°41' E 135°11'0 0.0
2018-Jun-19 23:30N 34°41' E 135°11'0 0.0
2018-Jun-19 22:54N 34°41' E 135°11'0 0.0
2018-Jun-19 22:18N 34°41' E 135°11'0 0.0
2018-Jun-19 22:00N 34°41' E 135°11'0 0.0
2018-Jun-19 21:30N 34°41' E 135°11'0 0.0
2018-Jun-19 20:54N 34°41' E 135°11'0 0.0
2018-Jun-19 20:30N 34°41' E 135°11'0 0.0
2018-Jun-19 20:00N 34°41' E 135°11'0 0.0
2018-Jun-19 19:30N 34°41' E 135°11'0 0.0
2018-Jun-19 19:00N 34°41' E 135°11'0 0.0
2018-Jun-19 18:30N 34°41' E 135°11'0 0.0
2018-Jun-19 17:48N 34°41' E 135°11'0 0.0
2018-Jun-19 17:30N 34°41' E 135°11'0 0.0
2018-Jun-19 17:00N 34°41' E 135°11'0 0.0
2018-Jun-19 16:30N 34°41' E 135°11'0 0.0
2018-Jun-19 16:00N 34°41' E 135°11'0 0.0
2018-Jun-19 15:30N 34°41' E 135°11'0 0.0
2018-Jun-19 15:00N 34°41' E 135°11'0 0.0
2018-Jun-19 14:30N 34°41' E 135°11'0 0.0
2018-Jun-19 14:00N 34°41' E 135°11'0 0.0
2018-Jun-19 13:30N 34°41' E 135°11'0 0.0
2018-Jun-19 13:00N 34°41' E 135°11'0 0.0
2018-Jun-19 12:24N 34°41' E 135°11'1 2.7
2018-Jun-19 12:00N 34°40' E 135°12'611.3
2018-Jun-19 11:30N 34°36' E 135°07'611.7
2018-Jun-19 10:59N 34°38' E 134°60'613.0
2018-Jun-19 10:30N 34°37' E 135°07'5 9.8
2018-Jun-19 10:00N 34°41' E 135°11'0 0.0
2018-Jun-19 09:19N 34°41' E 135°11'1 3.1
2018-Jun-19 09:00N 34°40' E 135°12'4 8.8
2018-Jun-19 08:30N 34°37' E 135°07'5 9.6
2018-Jun-19 08:00N 34°41' E 135°11'0 0.0
2018-Jun-19 07:17N 34°41' E 135°11'0 0.0
2018-Jun-19 06:59N 34°41' E 135°11'0 0.0
2018-Jun-19 06:29N 34°41' E 135°11'0 0.0
2018-Jun-19 05:53N 34°41' E 135°11'0 0.0
2018-Jun-19 05:29N 34°41' E 135°11'0 0.0
2018-Jun-19 04:57N 34°41' E 135°11'3 5.8
2018-Jun-19 04:30N 34°38' E 135°11'3 5.2
2018-Jun-19 04:00N 34°37' E 135°08'3 6.5
2018-Jun-19 03:29N 34°38' E 135°12'3 7.0
2018-Jun-19 03:00N 34°41' E 135°11'0 0.0
2018-Jun-19 02:28N 34°41' E 135°11'0 0.0
2018-Jun-19 01:58N 34°41' E 135°11'0 0.0
2018-Jun-19 01:28N 34°41' E 135°11'0 0.0
2018-Jun-19 00:58N 34°41' E 135°11'0 0.0
2018-Jun-19 00:28N 34°41' E 135°11'0 0.0
2018-Jun-18 23:58N 34°41' E 135°11'0 0.0
2018-Jun-18 23:28N 34°41' E 135°11'0 0.0
2018-Jun-18 22:58N 34°41' E 135°11'0 0.0
2018-Jun-18 22:28N 34°41' E 135°11'0 0.0
2018-Jun-18 21:58N 34°41' E 135°11'0 0.0
2018-Jun-18 21:28N 34°41' E 135°11'0 0.0
2018-Jun-18 20:52N 34°41' E 135°11'0 0.0
2018-Jun-18 20:28N 34°41' E 135°11'0 0.0
2018-Jun-18 19:58N 34°41' E 135°11'0 0.0
2018-Jun-18 19:22N 34°41' E 135°11'0 0.0
2018-Jun-18 18:58N 34°41' E 135°11'0 0.0
2018-Jun-18 18:28N 34°41' E 135°11'0 0.0
2018-Jun-18 17:58N 34°41' E 135°11'0 0.0
2018-Jun-18 17:28N 34°41' E 135°11'0 0.0
2018-Jun-18 16:58N 34°41' E 135°11'0 0.0
2018-Jun-18 16:28N 34°41' E 135°11'0 0.0
2018-Jun-18 15:58N 34°41' E 135°11'0 0.0
2018-Jun-18 15:16N 34°41' E 135°11'0 0.0
2018-Jun-18 14:58N 34°41' E 135°11'0 0.0
2018-Jun-18 14:28N 34°41' E 135°11'0 0.0
2018-Jun-18 13:58N 34°41' E 135°11'0 0.0
2018-Jun-18 13:28N 34°41' E 135°11'0 0.0
2018-Jun-18 12:58N 34°41' E 135°11'0 0.0
2018-Jun-18 12:28N 34°41' E 135°11'1 2.7
2018-Jun-18 11:59N 34°40' E 135°11'611.8
2018-Jun-18 11:30N 34°35' E 135°06'713.5
2018-Jun-18 11:00N 34°37' E 134°59'713.9
2018-Jun-18 10:31N 34°37' E 135°07'510.2
2018-Jun-18 10:00N 34°41' E 135°11'0 0.0
2018-Jun-18 09:23N 34°41' E 135°11'1 2.4
2018-Jun-18 09:00N 34°40' E 135°12'4 8.6
2018-Jun-18 08:31N 34°37' E 135°07'5 9.1
2018-Jun-18 08:00N 34°41' E 135°11'0 0.0
2018-Jun-18 07:26N 34°41' E 135°11'0 0.0
2018-Jun-18 06:56N 34°41' E 135°11'0 0.0
2018-Jun-18 06:20N 34°41' E 135°11'0 0.0
2018-Jun-18 05:56N 34°41' E 135°11'0 0.0
2018-Jun-18 05:26N 34°41' E 135°11'0 0.0
2018-Jun-18 05:00N 34°41' E 135°11'3 5.4
2018-Jun-18 04:30N 34°38' E 135°11'3 6.1
2018-Jun-18 04:00N 34°37' E 135°07'4 8.9
2018-Jun-18 03:30N 34°38' E 135°13'3 6.8
2018-Jun-18 03:00N 34°41' E 135°11'0 0.0
2018-Jun-18 02:28N 34°41' E 135°11'0 0.0
2018-Jun-18 01:58N 34°41' E 135°11'0 0.0
2018-Jun-18 01:28N 34°41' E 135°11'0 0.0
2018-Jun-18 00:52N 34°41' E 135°11'0 0.0
2018-Jun-18 00:22N 34°41' E 135°11'0 0.0
2018-Jun-17 23:58N 34°41' E 135°11'0 0.0
2018-Jun-17 23:28N 34°41' E 135°11'0 0.0
2018-Jun-17 22:46N 34°41' E 135°11'0 0.0
2018-Jun-17 22:28N 34°41' E 135°11'0 0.0
2018-Jun-17 21:58N 34°41' E 135°11'0 0.0
2018-Jun-17 21:28N 34°41' E 135°11'0 0.0
2018-Jun-17 20:58N 34°41' E 135°11'0 0.0
2018-Jun-17 20:28N 34°41' E 135°11'0 0.0
2018-Jun-17 19:58N 34°41' E 135°11'0 0.0
2018-Jun-17 19:28N 34°41' E 135°11'0 0.0
2018-Jun-17 18:52N 34°41' E 135°11'0 0.0
2018-Jun-17 18:16N 34°41' E 135°11'0 0.0
2018-Jun-17 17:58N 34°41' E 135°11'0 0.0
2018-Jun-17 17:28N 34°41' E 135°11'0 0.0
2018-Jun-17 16:52N 34°41' E 135°11'0 0.0
2018-Jun-17 16:28N 34°41' E 135°11'0 0.0
2018-Jun-17 15:52N 34°41' E 135°11'0 0.0
2018-Jun-17 15:28N 34°41' E 135°11'0 0.0
2018-Jun-17 14:58N 34°41' E 135°11'0 0.0
2018-Jun-17 14:28N 34°41' E 135°11'0 0.0
2018-Jun-17 13:58N 34°41' E 135°11'0 0.0
2018-Jun-17 13:28N 34°41' E 135°11'0 0.0
2018-Jun-17 12:58N 34°41' E 135°11'0 0.0
2018-Jun-17 12:28N 34°41' E 135°11'1 2.6
2018-Jun-17 12:00N 34°40' E 135°12'612.1
2018-Jun-17 11:30N 34°36' E 135°06'611.8
2018-Jun-17 11:00N 34°37' E 134°59'612.9
2018-Jun-17 10:31N 34°37' E 135°07'510.1
2018-Jun-17 10:00N 34°41' E 135°11'0 0.0
2018-Jun-17 09:30N 34°41' E 135°11'0 0.0
2018-Jun-17 09:00N 34°41' E 135°11'2 3.9
2018-Jun-17 08:30N 34°39' E 135°11'3 6.3
2018-Jun-17 08:00N 34°37' E 135°08'4 7.5
2018-Jun-17 07:30N 34°37' E 135°13'4 7.1
2018-Jun-17 07:00N 34°41' E 135°11'0 0.0
2018-Jun-17 06:26N 34°41' E 135°11'0 0.0
2018-Jun-17 05:56N 34°41' E 135°11'0 0.0
2018-Jun-17 05:26N 34°41' E 135°11'0 0.0
2018-Jun-17 05:00N 34°41' E 135°11'3 5.3
2018-Jun-17 04:30N 34°38' E 135°11'4 8.1
2018-Jun-17 04:00N 34°36' E 135°06'510.3
2018-Jun-17 03:30N 34°38' E 135°12'3 6.9
2018-Jun-17 03:00N 34°41' E 135°11'0 0.0
2018-Jun-17 02:26N 34°41' E 135°11'0 0.0
2018-Jun-17 01:08N 34°41' E 135°11'0 0.0
2018-Jun-17 00:56N 34°41' E 135°11'0 0.0
2018-Jun-17 00:26N 34°41' E 135°11'0 0.0
2018-Jun-16 23:56N 34°41' E 135°11'0 0.0
2018-Jun-16 23:26N 34°41' E 135°11'0 0.0
2018-Jun-16 22:56N 34°41' E 135°11'0 0.0
2018-Jun-16 22:20N 34°41' E 135°11'0 0.0
2018-Jun-16 21:56N 34°41' E 135°11'0 0.0
2018-Jun-16 21:26N 34°41' E 135°11'0 0.0
2018-Jun-16 20:50N 34°41' E 135°11'0 0.0
2018-Jun-16 20:26N 34°41' E 135°11'0 0.0
2018-Jun-16 19:50N 34°41' E 135°11'0 0.0
2018-Jun-16 19:26N 34°41' E 135°11'0 0.0
2018-Jun-16 18:56N 34°41' E 135°11'0 0.0
2018-Jun-16 18:26N 34°41' E 135°11'0 0.0
2018-Jun-16 17:56N 34°41' E 135°11'0 0.0
2018-Jun-16 17:26N 34°41' E 135°11'0 0.0
2018-Jun-16 16:56N 34°41' E 135°11'0 0.0
2018-Jun-16 16:26N 34°41' E 135°11'0 0.0
2018-Jun-16 15:56N 34°41' E 135°11'0 0.0
2018-Jun-16 15:26N 34°41' E 135°11'0 0.0
2018-Jun-16 14:50N 34°41' E 135°11'0 0.0
2018-Jun-16 14:20N 34°41' E 135°11'0 0.0
2018-Jun-16 13:56N 34°41' E 135°11'0 0.0
2018-Jun-16 13:26N 34°41' E 135°11'0 0.0
2018-Jun-16 12:56N 34°41' E 135°11'0 0.0
2018-Jun-16 12:26N 34°41' E 135°11'2 3.8
2018-Jun-16 12:00N 34°39' E 135°11'612.0
2018-Jun-16 11:30N 34°35' E 135°06'611.9
2018-Jun-16 10:59N 34°37' E 134°59'715.2
2018-Jun-16 10:31N 34°37' E 135°07'5 9.5
2018-Jun-16 10:00N 34°41' E 135°11'0 0.0
2018-Jun-16 09:30N 34°41' E 135°11'0 0.0
2018-Jun-16 09:00N 34°41' E 135°11'2 3.6
2018-Jun-16 08:31N 34°39' E 135°11'4 7.6
2018-Jun-16 08:00N 34°37' E 135°07'4 8.0
2018-Jun-16 07:30N 34°38' E 135°12'3 6.5
2018-Jun-16 07:00N 34°41' E 135°11'0 0.0
2018-Jun-16 06:25N 34°41' E 135°11'0 0.0
2018-Jun-16 05:55N 34°41' E 135°11'0 0.0
2018-Jun-16 05:25N 34°41' E 135°11'0 0.0
2018-Jun-16 05:00N 34°41' E 135°11'3 5.0
2018-Jun-16 04:30N 34°38' E 135°11'4 7.8
2018-Jun-16 04:00N 34°37' E 135°06'5 9.5
2018-Jun-16 03:31N 34°38' E 135°12'3 6.3
2018-Jun-16 03:00N 34°41' E 135°11'0 0.0
2018-Jun-16 02:24N 34°41' E 135°11'0 0.0
2018-Jun-16 02:00N 34°41' E 135°11'0 0.0
2018-Jun-16 01:30N 34°41' E 135°11'0 0.0
2018-Jun-16 01:00N 34°41' E 135°11'0 0.0
2018-Jun-16 00:24N 34°41' E 135°11'0 0.0
2018-Jun-16 00:00N 34°41' E 135°11'0 0.0
2018-Jun-15 23:24N 34°41' E 135°11'0 0.0
2018-Jun-15 23:00N 34°41' E 135°11'0 0.0
2018-Jun-15 22:30N 34°41' E 135°11'0 0.0
2018-Jun-15 22:00N 34°41' E 135°11'0 0.0
2018-Jun-15 21:30N 34°41' E 135°11'0 0.0
2018-Jun-15 20:54N 34°41' E 135°11'0 0.0
2018-Jun-15 20:18N 34°41' E 135°11'0 0.0
2018-Jun-15 19:48N 34°41' E 135°11'0 0.0
2018-Jun-15 19:30N 34°41' E 135°11'  

Dump ship's entire track history